sensor_id;sensor_type;location;lat;lon;timestamp;pressure;altitude;pressure_sealevel;temperature;humidity
28628;BME280;15815;46.760;19.604;2022-12-07T00:01:17;100337.91;;;-0.08;98.24
28628;BME280;15815;46.760;19.604;2022-12-07T00:03:44;100338.41;;;-0.15;99.13
28628;BME280;15815;46.760;19.604;2022-12-07T00:06:13;100335.78;;;-0.11;99.13
28628;BME280;15815;46.760;19.604;2022-12-07T00:08:40;100327.69;;;-0.16;100.00
28628;BME280;15815;46.760;19.604;2022-12-07T00:11:08;100325.56;;;-0.11;100.00
28628;BME280;15815;46.760;19.604;2022-12-07T00:13:34;100335.78;;;-0.11;100.00
28628;BME280;15815;46.760;19.604;2022-12-07T00:16:15;100322.97;;;-0.16;100.00
28628;BME280;15815;46.760;19.604;2022-12-07T00:18:41;100314.09;;;-0.21;100.00
28628;BME280;15815;46.760;19.604;2022-12-07T00:21:12;100319.22;;;-0.11;100.00
28628;BME280;15815;46.760;19.604;2022-12-07T00:23:40;100297.97;;;-0.19;100.00
28628;BME280;15815;46.760;19.604;2022-12-07T00:26:09;100321.78;;;-0.06;100.00
28628;BME280;15815;46.760;19.604;2022-12-07T00:28:35;100272.16;;;-0.23;100.00
28628;BME280;15815;46.760;19.604;2022-12-07T00:31:06;100305.34;;;-0.03;100.00
28628;BME280;15815;46.760;19.604;2022-12-07T00:33:33;100303.72;;;-0.04;100.00
28628;BME280;15815;46.760;19.604;2022-12-07T00:35:59;100305.34;;;-0.03;100.00
28628;BME280;15815;46.760;19.604;2022-12-07T00:38:28;100305.81;;;-0.01;100.00
28628;BME280;15815;46.760;19.604;2022-12-07T00:40:55;100295.31;;;-0.07;100.00
28628;BME280;15815;46.760;19.604;2022-12-07T00:43:21;100280.75;;;-0.16;100.00
28628;BME280;15815;46.760;19.604;2022-12-07T00:45:46;100294.03;;;-0.10;100.00
28628;BME280;15815;46.760;19.604;2022-12-07T00:48:11;100295.63;;;-0.09;100.00
28628;BME280;15815;46.760;19.604;2022-12-07T00:50:37;100295.50;;;-0.12;100.00
28628;BME280;15815;46.760;19.604;2022-12-07T00:53:02;100293.34;;;-0.07;100.00
28628;BME280;15815;46.760;19.604;2022-12-07T00:55:33;100303.22;;;0.03;100.00
28628;BME280;15815;46.760;19.604;2022-12-07T00:58:02;100307.75;;;0.08;100.00
28628;BME280;15815;46.760;19.604;2022-12-07T01:00:27;100298.19;;;0.05;100.00
28628;BME280;15815;46.760;19.604;2022-12-07T01:02:53;100307.41;;;0.09;100.00
28628;BME280;15815;46.760;19.604;2022-12-07T01:05:18;100295.53;;;0.09;100.00
28628;BME280;15815;46.760;19.604;2022-12-07T01:07:44;100283.22;;;0.06;100.00
28628;BME280;15815;46.760;19.604;2022-12-07T01:10:09;100307.81;;;0.20;100.00
28628;BME280;15815;46.760;19.604;2022-12-07T01:12:35;100292.91;;;0.12;100.00
28628;BME280;15815;46.760;19.604;2022-12-07T01:15:00;100309.84;;;0.11;100.00
28628;BME280;15815;46.760;19.604;2022-12-07T01:17:26;100310.19;;;0.09;100.00
28628;BME280;15815;46.760;19.604;2022-12-07T01:19:51;100290.56;;;0.02;100.00
28628;BME280;15815;46.760;19.604;2022-12-07T01:22:16;100296.91;;;-0.06;100.00
28628;BME280;15815;46.760;19.604;2022-12-07T01:24:42;100295.91;;;-0.02;100.00
28628;BME280;15815;46.760;19.604;2022-12-07T01:27:07;100302.75;;;0.01;100.00
28628;BME280;15815;46.760;19.604;2022-12-07T01:29:32;100294.63;;;-0.04;100.00
28628;BME280;15815;46.760;19.604;2022-12-07T01:31:58;100285.41;;;-0.08;100.00
28628;BME280;15815;46.760;19.604;2022-12-07T01:34:23;100283.78;;;-0.09;100.00
28628;BME280;15815;46.760;19.604;2022-12-07T01:36:48;100279.72;;;-0.12;100.00
28628;BME280;15815;46.760;19.604;2022-12-07T01:39:14;100294.28;;;-0.03;100.00
28628;BME280;15815;46.760;19.604;2022-12-07T01:41:41;100292.00;;;-0.01;100.00
28628;BME280;15815;46.760;19.604;2022-12-07T01:44:27;100293.50;;;-0.03;100.00
28628;BME280;15815;46.760;19.604;2022-12-07T01:46:56;100302.59;;;-0.03;100.00
28628;BME280;15815;46.760;19.604;2022-12-07T01:49:33;100294.47;;;0.01;100.00
28628;BME280;15815;46.760;19.604;2022-12-07T01:52:24;100289.44;;;-0.06;100.00
28628;BME280;15815;46.760;19.604;2022-12-07T01:54:54;100282.84;;;-0.13;100.00
28628;BME280;15815;46.760;19.604;2022-12-07T01:57:22;100290.25;;;-0.05;100.00
28628;BME280;15815;46.760;19.604;2022-12-07T01:59:49;100282.09;;;-0.02;100.00
28628;BME280;15815;46.760;19.604;2022-12-07T02:02:33;100288.25;;;0.04;100.00
28628;BME280;15815;46.760;19.604;2022-12-07T02:05:01;100283.88;;;0.03;100.00
28628;BME280;15815;46.760;19.604;2022-12-07T02:07:31;100274.34;;;-0.08;100.00
28628;BME280;15815;46.760;19.604;2022-12-07T02:12:44;100275.69;;;-0.14;100.00
28628;BME280;15815;46.760;19.604;2022-12-07T02:15:12;100276.97;;;-0.12;100.00
28628;BME280;15815;46.760;19.604;2022-12-07T02:23:34;100289.31;;;-0.09;100.00
28628;BME280;15815;46.760;19.604;2022-12-07T02:31:30;100290.91;;;-0.08;100.00
28628;BME280;15815;46.760;19.604;2022-12-07T02:34:04;100262.75;;;-0.22;100.00
28628;BME280;15815;46.760;19.604;2022-12-07T02:36:41;100283.97;;;-0.14;100.00
28628;BME280;15815;46.760;19.604;2022-12-07T02:39:11;100287.53;;;-0.14;100.00
28628;BME280;15815;46.760;19.604;2022-12-07T02:41:43;100281.88;;;-0.17;100.00
28628;BME280;15815;46.760;19.604;2022-12-07T02:44:18;100272.13;;;-0.15;100.00
28628;BME280;15815;46.760;19.604;2022-12-07T02:46:48;100285.25;;;-0.12;100.00
28628;BME280;15815;46.760;19.604;2022-12-07T02:49:15;100274.59;;;-0.22;100.00
28628;BME280;15815;46.760;19.604;2022-12-07T02:51:43;100276.06;;;-0.24;100.00
28628;BME280;15815;46.760;19.604;2022-12-07T02:54:14;100277.03;;;-0.20;100.00
28628;BME280;15815;46.760;19.604;2022-12-07T02:56:47;100277.84;;;-0.20;100.00
28628;BME280;15815;46.760;19.604;2022-12-07T03:02:28;100273.13;;;-0.19;100.00
28628;BME280;15815;46.760;19.604;2022-12-07T03:13:25;100273.47;;;-0.29;100.00
28628;BME280;15815;46.760;19.604;2022-12-07T03:18:29;100262.91;;;-0.27;100.00
28628;BME280;15815;46.760;19.604;2022-12-07T03:20:59;100249.63;;;-0.34;100.00
28628;BME280;15815;46.760;19.604;2022-12-07T03:23:27;100259.03;;;-0.26;100.00
28628;BME280;15815;46.760;19.604;2022-12-07T03:25:57;100251.84;;;-0.27;100.00
28628;BME280;15815;46.760;19.604;2022-12-07T03:28:35;100258.84;;;-0.21;100.00
28628;BME280;15815;46.760;19.604;2022-12-07T03:31:14;100253.66;;;-0.32;100.00
28628;BME280;15815;46.760;19.604;2022-12-07T03:36:38;100252.38;;;-0.25;100.00
28628;BME280;15815;46.760;19.604;2022-12-07T03:39:21;100262.53;;;-0.17;100.00
28628;BME280;15815;46.760;19.604;2022-12-07T03:41:48;100249.44;;;-0.29;100.00
28628;BME280;15815;46.760;19.604;2022-12-07T03:44:15;100256.09;;;-0.30;100.00
28628;BME280;15815;46.760;19.604;2022-12-07T03:49:29;100259.03;;;-0.26;100.00
28628;BME280;15815;46.760;19.604;2022-12-07T03:54:30;100268.63;;;-0.33;100.00
28628;BME280;15815;46.760;19.604;2022-12-07T03:56:58;100259.88;;;-0.35;100.00
28628;BME280;15815;46.760;19.604;2022-12-07T03:59:24;100248.53;;;-0.42;100.00
28628;BME280;15815;46.760;19.604;2022-12-07T04:01:56;100252.72;;;-0.36;100.00
28628;BME280;15815;46.760;19.604;2022-12-07T04:04:23;100247.88;;;-0.39;100.00
28628;BME280;15815;46.760;19.604;2022-12-07T04:06:49;100245.25;;;-0.35;100.00
28628;BME280;15815;46.760;19.604;2022-12-07T04:09:15;100255.34;;;-0.39;100.00
28628;BME280;15815;46.760;19.604;2022-12-07T04:11:40;100242.06;;;-0.46;100.00
28628;BME280;15815;46.760;19.604;2022-12-07T04:14:06;100232.84;;;-0.50;100.00
28628;BME280;15815;46.760;19.604;2022-12-07T04:16:49;100239.31;;;-0.46;100.00
28628;BME280;15815;46.760;19.604;2022-12-07T04:19:15;100242.72;;;-0.49;100.00
28628;BME280;15815;46.760;19.604;2022-12-07T04:21:41;100232.34;;;-0.52;100.00
28628;BME280;15815;46.760;19.604;2022-12-07T04:24:07;100241.13;;;-0.50;100.00
28628;BME280;15815;46.760;19.604;2022-12-07T04:26:32;100226.19;;;-0.57;100.00
28628;BME280;15815;46.760;19.604;2022-12-07T04:28:57;100247.44;;;-0.49;100.00
28628;BME280;15815;46.760;19.604;2022-12-07T04:31:23;100230.28;;;-0.64;100.00
28628;BME280;15815;46.760;19.604;2022-12-07T04:33:48;100228.81;;;-0.61;100.00
28628;BME280;15815;46.760;19.604;2022-12-07T04:36:15;100234.66;;;-0.54;100.00
28628;BME280;15815;46.760;19.604;2022-12-07T04:38:41;100230.75;;;-0.53;100.00
28628;BME280;15815;46.760;19.604;2022-12-07T04:41:08;100210.81;;;-0.67;100.00
28628;BME280;15815;46.760;19.604;2022-12-07T04:43:34;100218.91;;;-0.62;100.00
28628;BME280;15815;46.760;19.604;2022-12-07T04:45:59;100221.81;;;-0.58;100.00
28628;BME280;15815;46.760;19.604;2022-12-07T04:48:25;100228.81;;;-0.61;100.00
28628;BME280;15815;46.760;19.604;2022-12-07T04:50:50;100221.19;;;-0.64;100.00
28628;BME280;15815;46.760;19.604;2022-12-07T04:53:16;100215.19;;;-0.66;100.00
28628;BME280;15815;46.760;19.604;2022-12-07T04:55:41;100211.50;;;-0.70;100.00
28628;BME280;15815;46.760;19.604;2022-12-07T04:58:06;100206.31;;;-0.72;100.00
28628;BME280;15815;46.760;19.604;2022-12-07T05:00:32;100224.56;;;-0.58;100.00
28628;BME280;15815;46.760;19.604;2022-12-07T05:02:57;100219.25;;;-0.64;100.00
28628;BME280;15815;46.760;19.604;2022-12-07T05:05:23;100203.22;;;-0.70;100.00
28628;BME280;15815;46.760;19.604;2022-12-07T05:07:49;100223.59;;;-0.54;100.00
28628;BME280;15815;46.760;19.604;2022-12-07T05:10:14;100216.16;;;-0.62;100.00
28628;BME280;15815;46.760;19.604;2022-12-07T05:12:43;100202.53;;;-0.67;100.00
28628;BME280;15815;46.760;19.604;2022-12-07T05:15:09;100204.81;;;-0.69;100.00
28628;BME280;15815;46.760;19.604;2022-12-07T05:17:34;100224.44;;;-0.62;100.00
28628;BME280;15815;46.760;19.604;2022-12-07T05:19:59;100229.63;;;-0.60;100.00
28628;BME280;15815;46.760;19.604;2022-12-07T05:22:25;100223.00;;;-0.68;100.00
28628;BME280;15815;46.760;19.604;2022-12-07T05:24:56;100249.41;;;-0.58;100.00
28628;BME280;15815;46.760;19.604;2022-12-07T05:27:21;100236.63;;;-0.63;100.00
28628;BME280;15815;46.760;19.604;2022-12-07T05:29:47;100234.66;;;-0.63;100.00
28628;BME280;15815;46.760;19.604;2022-12-07T05:32:12;100240.66;;;-0.60;100.00
28628;BME280;15815;46.760;19.604;2022-12-07T05:34:38;100245.38;;;-0.61;100.00
28628;BME280;15815;46.760;19.604;2022-12-07T05:37:06;100234.66;;;-0.63;100.00
28628;BME280;15815;46.760;19.604;2022-12-07T05:39:31;100247.66;;;-0.63;100.00
28628;BME280;15815;46.760;19.604;2022-12-07T05:41:57;100236.63;;;-0.63;100.00
28628;BME280;15815;46.760;19.604;2022-12-07T05:44:42;100241.19;;;-0.67;100.00
28628;BME280;15815;46.760;19.604;2022-12-07T05:47:08;100249.50;;;-0.76;100.00
28628;BME280;15815;46.760;19.604;2022-12-07T05:49:34;100218.19;;;-0.88;100.00
28628;BME280;15815;46.760;19.604;2022-12-07T05:51:59;100227.91;;;-0.82;100.00
28628;BME280;15815;46.760;19.604;2022-12-07T05:54:25;100237.81;;;-0.73;100.00
28628;BME280;15815;46.760;19.604;2022-12-07T05:56:50;100227.28;;;-0.79;100.00
28628;BME280;15815;46.760;19.604;2022-12-07T05:59:16;100242.84;;;-0.75;100.00
28628;BME280;15815;46.760;19.604;2022-12-07T06:02:01;100257.16;;;-0.81;100.00
28628;BME280;15815;46.760;19.604;2022-12-07T06:04:29;100264.63;;;-0.82;100.00
28628;BME280;15815;46.760;19.604;2022-12-07T06:06:56;100254.56;;;-0.86;100.00
28628;BME280;15815;46.760;19.604;2022-12-07T06:09:25;100260.88;;;-0.86;100.00
28628;BME280;15815;46.760;19.604;2022-12-07T06:11:50;100267.06;;;-0.80;100.00
28628;BME280;15815;46.760;19.604;2022-12-07T06:14:35;100276.28;;;-0.76;100.00
28628;BME280;15815;46.760;19.604;2022-12-07T06:17:01;100288.16;;;-0.76;100.00
28628;BME280;15815;46.760;19.604;2022-12-07T06:19:27;100279.19;;;-0.73;100.00
28628;BME280;15815;46.760;19.604;2022-12-07T06:21:52;100283.72;;;-0.68;100.00
28628;BME280;15815;46.760;19.604;2022-12-07T06:24:18;100259.75;;;-0.85;100.00
28628;BME280;15815;46.760;19.604;2022-12-07T06:26:44;100236.09;;;-0.95;100.00
28628;BME280;15815;46.760;19.604;2022-12-07T06:29:10;100294.41;;;-0.58;100.00
28628;BME280;15815;46.760;19.604;2022-12-07T06:31:36;100277.72;;;-0.70;100.00
28628;BME280;15815;46.760;19.604;2022-12-07T06:34:04;100281.78;;;-0.68;100.00
28628;BME280;15815;46.760;19.604;2022-12-07T06:36:30;100302.34;;;-0.48;100.00
28628;BME280;15815;46.760;19.604;2022-12-07T06:38:56;100288.34;;;-0.43;100.00
28628;BME280;15815;46.760;19.604;2022-12-07T06:41:21;100295.41;;;-0.24;100.00
28628;BME280;15815;46.760;19.604;2022-12-07T06:43:47;100294.41;;;-0.20;100.00
28628;BME280;15815;46.760;19.604;2022-12-07T06:46:13;100281.75;;;-0.21;100.00
28628;BME280;15815;46.760;19.604;2022-12-07T06:48:41;100286.59;;;-0.18;100.00
28628;BME280;15815;46.760;19.604;2022-12-07T06:51:07;100291.72;;;-0.08;100.00
28628;BME280;15815;46.760;19.604;2022-12-07T06:53:33;100297.50;;;0.08;100.00
28628;BME280;15815;46.760;19.604;2022-12-07T06:55:58;100271.84;;;-0.01;100.00
28628;BME280;15815;46.760;19.604;2022-12-07T06:58:24;100294.16;;;0.44;100.00
28628;BME280;15815;46.760;19.604;2022-12-07T07:00:49;100280.78;;;1.00;100.00
28628;BME280;15815;46.760;19.604;2022-12-07T07:03:15;100294.59;;;1.21;100.00
28628;BME280;15815;46.760;19.604;2022-12-07T07:05:41;100286.81;;;1.84;100.00
28628;BME280;15815;46.760;19.604;2022-12-07T07:08:07;100298.91;;;2.68;100.00
28628;BME280;15815;46.760;19.604;2022-12-07T07:10:33;100279.44;;;3.08;100.00
28628;BME280;15815;46.760;19.604;2022-12-07T07:12:59;100267.25;;;3.57;100.00
28628;BME280;15815;46.760;19.604;2022-12-07T07:15:24;100301.19;;;3.82;99.57
28628;BME280;15815;46.760;19.604;2022-12-07T07:17:50;100294.09;;;4.16;100.00
28628;BME280;15815;46.760;19.604;2022-12-07T07:20:15;100263.94;;;4.02;100.00
28628;BME280;15815;46.760;19.604;2022-12-07T07:22:40;100293.84;;;4.40;100.00
28628;BME280;15815;46.760;19.604;2022-12-07T07:25:06;100281.13;;;4.58;100.00
28628;BME280;15815;46.760;19.604;2022-12-07T07:27:31;100271.22;;;5.42;98.97
28628;BME280;15815;46.760;19.604;2022-12-07T07:29:57;100283.72;;;6.20;97.06
28628;BME280;15815;46.760;19.604;2022-12-07T07:32:22;100275.50;;;6.91;94.78
28628;BME280;15815;46.760;19.604;2022-12-07T07:34:48;100258.72;;;7.24;91.44
28628;BME280;15815;46.760;19.604;2022-12-07T07:37:13;100280.81;;;7.81;92.37
28628;BME280;15815;46.760;19.604;2022-12-07T07:39:39;100286.06;;;8.33;89.86
28628;BME280;15815;46.760;19.604;2022-12-07T07:42:04;100267.41;;;8.59;91.87
28628;BME280;15815;46.760;19.604;2022-12-07T07:44:30;100291.16;;;8.86;92.89
28628;BME280;15815;46.760;19.604;2022-12-07T07:46:55;100291.78;;;9.67;90.21
28628;BME280;15815;46.760;19.604;2022-12-07T07:49:21;100290.22;;;10.19;89.92
28628;BME280;15815;46.760;19.604;2022-12-07T07:51:46;100300.16;;;10.73;88.20
28628;BME280;15815;46.760;19.604;2022-12-07T07:54:11;100301.56;;;11.28;86.02
28628;BME280;15815;46.760;19.604;2022-12-07T07:56:37;100285.19;;;11.78;85.00
28628;BME280;15815;46.760;19.604;2022-12-07T07:59:02;100293.50;;;12.41;83.53
28628;BME280;15815;46.760;19.604;2022-12-07T08:01:27;100294.53;;;12.95;83.20
28628;BME280;15815;46.760;19.604;2022-12-07T08:03:53;100276.41;;;13.26;77.90
28628;BME280;15815;46.760;19.604;2022-12-07T08:06:18;100277.34;;;13.16;81.15
28628;BME280;15815;46.760;19.604;2022-12-07T08:08:43;100288.13;;;12.91;86.50
28628;BME280;15815;46.760;19.604;2022-12-07T08:11:09;100279.09;;;12.31;86.95
28628;BME280;15815;46.760;19.604;2022-12-07T08:13:34;100292.00;;;11.84;83.17
28628;BME280;15815;46.760;19.604;2022-12-07T08:16:04;100292.03;;;12.66;73.35
28628;BME280;15815;46.760;19.604;2022-12-07T08:18:30;100291.72;;;12.95;81.93
28628;BME280;15815;46.760;19.604;2022-12-07T08:21:00;100297.97;;;13.98;80.02
28628;BME280;15815;46.760;19.604;2022-12-07T08:23:29;100286.13;;;14.30;75.73
28628;BME280;15815;46.760;19.604;2022-12-07T08:25:55;100283.31;;;13.79;74.25
28628;BME280;15815;46.760;19.604;2022-12-07T08:28:20;100282.78;;;14.35;78.54
28628;BME280;15815;46.760;19.604;2022-12-07T08:30:46;100272.22;;;15.22;73.48
28628;BME280;15815;46.760;19.604;2022-12-07T08:33:11;100296.50;;;15.59;74.17
28628;BME280;15815;46.760;19.604;2022-12-07T08:35:36;100292.81;;;16.11;72.13
28628;BME280;15815;46.760;19.604;2022-12-07T08:38:02;100292.44;;;16.41;70.19
28628;BME280;15815;46.760;19.604;2022-12-07T08:40:29;100295.00;;;16.68;70.94
28628;BME280;15815;46.760;19.604;2022-12-07T08:42:54;100281.00;;;17.19;66.53
28628;BME280;15815;46.760;19.604;2022-12-07T08:45:21;100286.50;;;17.51;63.67
28628;BME280;15815;46.760;19.604;2022-12-07T08:47:53;100297.66;;;17.58;63.83
28628;BME280;15815;46.760;19.604;2022-12-07T08:50:20;100301.66;;;17.61;63.86
28628;BME280;15815;46.760;19.604;2022-12-07T08:52:54;100302.59;;;17.96;63.78
28628;BME280;15815;46.760;19.604;2022-12-07T08:55:20;100317.59;;;18.09;61.69
28628;BME280;15815;46.760;19.604;2022-12-07T08:57:46;100311.19;;;18.43;64.55
28628;BME280;15815;46.760;19.604;2022-12-07T09:00:12;100303.38;;;18.57;62.21
28628;BME280;15815;46.760;19.604;2022-12-07T09:02:38;100317.94;;;18.59;64.23
28628;BME280;15815;46.760;19.604;2022-12-07T09:05:07;100308.34;;;18.91;59.42
28628;BME280;15815;46.760;19.604;2022-12-07T09:07:33;100305.25;;;18.85;60.58
28628;BME280;15815;46.760;19.604;2022-12-07T09:09:59;100305.56;;;18.65;59.54
28628;BME280;15815;46.760;19.604;2022-12-07T09:12:25;100302.16;;;18.92;60.57
28628;BME280;15815;46.760;19.604;2022-12-07T09:14:50;100296.22;;;18.99;60.69
28628;BME280;15815;46.760;19.604;2022-12-07T09:17:15;100299.88;;;19.53;59.34
28628;BME280;15815;46.760;19.604;2022-12-07T09:19:41;100306.00;;;18.98;56.13
28628;BME280;15815;46.760;19.604;2022-12-07T09:22:08;100300.72;;;19.53;59.31
28628;BME280;15815;46.760;19.604;2022-12-07T09:24:33;100295.44;;;18.86;54.13
28628;BME280;15815;46.760;19.604;2022-12-07T09:26:59;100292.75;;;19.26;53.79
28628;BME280;15815;46.760;19.604;2022-12-07T09:29:24;100288.66;;;19.27;54.18
28628;BME280;15815;46.760;19.604;2022-12-07T09:31:51;100277.16;;;19.62;55.66
28628;BME280;15815;46.760;19.604;2022-12-07T09:34:16;100289.81;;;19.61;54.78
28628;BME280;15815;46.760;19.604;2022-12-07T09:36:44;100279.69;;;19.69;56.49
28628;BME280;15815;46.760;19.604;2022-12-07T09:39:10;100288.38;;;19.96;55.50
28628;BME280;15815;46.760;19.604;2022-12-07T09:41:38;100277.81;;;20.06;47.86
28628;BME280;15815;46.760;19.604;2022-12-07T09:44:09;100283.72;;;20.30;49.61
28628;BME280;15815;46.760;19.604;2022-12-07T09:46:40;100285.38;;;20.49;51.93
28628;BME280;15815;46.760;19.604;2022-12-07T09:49:11;100272.75;;;20.19;51.67
28628;BME280;15815;46.760;19.604;2022-12-07T09:51:37;100276.38;;;20.01;52.74
28628;BME280;15815;46.760;19.604;2022-12-07T09:54:03;100279.31;;;20.38;55.39
28628;BME280;15815;46.760;19.604;2022-12-07T09:56:29;100293.09;;;20.40;50.92
28628;BME280;15815;46.760;19.604;2022-12-07T09:59:00;100288.25;;;20.58;52.47
28628;BME280;15815;46.760;19.604;2022-12-07T10:01:31;100275.88;;;20.61;46.19
28628;BME280;15815;46.760;19.604;2022-12-07T10:04:09;100273.94;;;20.49;46.74
28628;BME280;15815;46.760;19.604;2022-12-07T10:06:38;100271.25;;;20.73;51.92
28628;BME280;15815;46.760;19.604;2022-12-07T10:09:09;100280.16;;;20.75;50.03
28628;BME280;15815;46.760;19.604;2022-12-07T10:11:35;100283.97;;;20.72;45.65
28628;BME280;15815;46.760;19.604;2022-12-07T10:14:13;100278.41;;;20.78;45.45
28628;BME280;15815;46.760;19.604;2022-12-07T10:16:41;100290.47;;;21.00;50.31
28628;BME280;15815;46.760;19.604;2022-12-07T10:19:31;100277.75;;;21.19;44.31
28628;BME280;15815;46.760;19.604;2022-12-07T10:22:14;100270.63;;;20.78;42.47
28628;BME280;15815;46.760;19.604;2022-12-07T10:24:40;100261.19;;;20.14;52.49
28628;BME280;15815;46.760;19.604;2022-12-07T10:27:30;100269.44;;;19.19;46.00
28628;BME280;15815;46.760;19.604;2022-12-07T10:29:57;100259.72;;;19.38;49.18
28628;BME280;15815;46.760;19.604;2022-12-07T10:32:34;100249.75;;;19.64;44.51
28628;BME280;15815;46.760;19.604;2022-12-07T10:37:43;100237.72;;;20.10;48.70
28628;BME280;15815;46.760;19.604;2022-12-07T10:40:34;100249.00;;;19.73;41.36
28628;BME280;15815;46.760;19.604;2022-12-07T10:48:47;100225.59;;;19.78;45.23
28628;BME280;15815;46.760;19.604;2022-12-07T10:51:12;100244.19;;;20.01;45.97
28628;BME280;15815;46.760;19.604;2022-12-07T10:54:16;100238.03;;;20.12;45.46
28628;BME280;15815;46.760;19.604;2022-12-07T11:08:11;100241.03;;;18.84;45.88
28628;BME280;15815;46.760;19.604;2022-12-07T11:13:27;100237.28;;;17.29;48.78
28628;BME280;15815;46.760;19.604;2022-12-07T11:18:51;100240.09;;;16.13;48.02
28628;BME280;15815;46.760;19.604;2022-12-07T11:24:15;100234.78;;;15.30;52.33
28628;BME280;15815;46.760;19.604;2022-12-07T11:26:52;100228.34;;;15.30;53.67
28628;BME280;15815;46.760;19.604;2022-12-07T11:37:35;100222.41;;;13.78;54.25
28628;BME280;15815;46.760;19.604;2022-12-07T11:45:41;100223.47;;;14.74;52.89
28628;BME280;15815;46.760;19.604;2022-12-07T11:51:10;100206.22;;;14.89;54.86
28628;BME280;15815;46.760;19.604;2022-12-07T11:56:23;100205.19;;;15.35;55.34
28628;BME280;15815;46.760;19.604;2022-12-07T11:59:01;100197.25;;;15.10;50.81
28628;BME280;15815;46.760;19.604;2022-12-07T12:06:43;100184.22;;;15.49;52.71
28628;BME280;15815;46.760;19.604;2022-12-07T12:09:26;100193.72;;;15.58;51.36
28628;BME280;15815;46.760;19.604;2022-12-07T12:14:53;100190.06;;;15.41;48.91
28628;BME280;15815;46.760;19.604;2022-12-07T12:25:46;100182.66;;;15.11;51.59
28628;BME280;15815;46.760;19.604;2022-12-07T12:33:37;100182.19;;;14.14;53.83
28628;BME280;15815;46.760;19.604;2022-12-07T12:36:25;100186.06;;;14.23;50.58
28628;BME280;15815;46.760;19.604;2022-12-07T12:39:09;100184.81;;;14.05;52.83
28628;BME280;15815;46.760;19.604;2022-12-07T12:46:52;100190.44;;;13.58;53.81
28628;BME280;15815;46.760;19.604;2022-12-07T12:51:50;100188.69;;;13.41;53.07
28628;BME280;15815;46.760;19.604;2022-12-07T12:54:22;100193.34;;;13.27;55.49
28628;BME280;15815;46.760;19.604;2022-12-07T13:02:23;100174.94;;;12.85;55.11
28628;BME280;15815;46.760;19.604;2022-12-07T13:15:41;100189.94;;;12.11;56.67
28628;BME280;15815;46.760;19.604;2022-12-07T13:29:03;100178.34;;;11.57;56.73
28628;BME280;15815;46.760;19.604;2022-12-07T13:31:34;100186.03;;;11.53;57.28
28628;BME280;15815;46.760;19.604;2022-12-07T13:34:00;100174.53;;;11.29;58.61
28628;BME280;15815;46.760;19.604;2022-12-07T13:36:39;100195.81;;;11.34;57.99
28628;BME280;15815;46.760;19.604;2022-12-07T13:41:41;100181.09;;;11.08;59.38
28628;BME280;15815;46.760;19.604;2022-12-07T13:44:15;100176.41;;;10.84;59.02
28628;BME280;15815;46.760;19.604;2022-12-07T13:49:23;100180.03;;;10.84;59.29
28628;BME280;15815;46.760;19.604;2022-12-07T13:51:50;100189.31;;;10.74;60.53
28628;BME280;15815;46.760;19.604;2022-12-07T13:54:16;100175.00;;;10.37;61.25
28628;BME280;15815;46.760;19.604;2022-12-07T13:56:42;100187.91;;;10.24;61.19
28628;BME280;15815;46.760;19.604;2022-12-07T13:59:18;100198.69;;;10.32;60.80
28628;BME280;15815;46.760;19.604;2022-12-07T14:01:45;100200.72;;;10.17;61.22
28628;BME280;15815;46.760;19.604;2022-12-07T14:04:29;100184.34;;;9.73;60.79
28628;BME280;15815;46.760;19.604;2022-12-07T14:06:55;100191.16;;;9.72;62.54
28628;BME280;15815;46.760;19.604;2022-12-07T14:09:23;100204.00;;;9.59;62.21
28628;BME280;15815;46.760;19.604;2022-12-07T14:11:50;100198.78;;;9.40;63.52
28628;BME280;15815;46.760;19.604;2022-12-07T14:14:20;100212.00;;;9.46;62.60
28628;BME280;15815;46.760;19.604;2022-12-07T14:16:57;100217.16;;;9.23;63.33
28628;BME280;15815;46.760;19.604;2022-12-07T14:19:51;100220.34;;;9.07;62.92
28628;BME280;15815;46.760;19.604;2022-12-07T14:22:30;100217.47;;;8.86;64.00
28628;BME280;15815;46.760;19.604;2022-12-07T14:25:16;100225.38;;;8.55;65.38
28628;BME280;15815;46.760;19.604;2022-12-07T14:27:59;100221.66;;;8.33;66.01
28628;BME280;15815;46.760;19.604;2022-12-07T14:30:28;100230.47;;;8.35;66.04
28628;BME280;15815;46.760;19.604;2022-12-07T14:33:02;100234.09;;;8.43;66.16
28628;BME280;15815;46.760;19.604;2022-12-07T14:35:29;100235.97;;;8.25;67.01
28628;BME280;15815;46.760;19.604;2022-12-07T14:37:54;100216.31;;;8.18;66.18
28628;BME280;15815;46.760;19.604;2022-12-07T14:40:25;100237.13;;;8.20;66.38
28628;BME280;15815;46.760;19.604;2022-12-07T14:43:08;100225.06;;;8.09;65.58
28628;BME280;15815;46.760;19.604;2022-12-07T14:45:38;100225.81;;;7.99;66.29
28628;BME280;15815;46.760;19.604;2022-12-07T14:48:05;100222.59;;;7.97;66.17
28628;BME280;15815;46.760;19.604;2022-12-07T14:50:37;100229.78;;;7.94;66.12
28628;BME280;15815;46.760;19.604;2022-12-07T14:53:11;100227.88;;;7.58;67.79
28628;BME280;15815;46.760;19.604;2022-12-07T14:55:37;100235.59;;;7.31;68.77
28628;BME280;15815;46.760;19.604;2022-12-07T14:58:03;100221.97;;;7.26;68.60
28628;BME280;15815;46.760;19.604;2022-12-07T15:00:29;100234.56;;;7.09;69.96
28628;BME280;15815;46.760;19.604;2022-12-07T15:02:55;100236.38;;;7.28;68.95
28628;BME280;15815;46.760;19.604;2022-12-07T15:05:21;100221.47;;;7.13;68.26
28628;BME280;15815;46.760;19.604;2022-12-07T15:07:47;100228.81;;;6.91;69.69
28628;BME280;15815;46.760;19.604;2022-12-07T15:10:21;100232.34;;;6.55;70.93
28628;BME280;15815;46.760;19.604;2022-12-07T15:12:47;100236.09;;;6.66;71.78